Terminal Aerodrome Forecast
Issued by NWS Chicago, IL

Home | Current Version | Previous Version | Graphics & Text | Print | Product List | Glossary On
Versions: 1 2 3 4 5 6 7 8 9 10 11 12 13 14 15 16 17 18 19 20 21 22 23 24 25 26 27 28 29 30 31
000
FTUS43 KLOT 182300
TAFRFD
TAF
KRFD 182330Z 1900/1924 09008KT P6SM FEW040
     FM190200 10005KT P6SM FEW030
     FM190700 14004KT 3SM BR FEW007 SCT012
     FM191400 18009KT P6SM SCT250
     FM191700 18013G19KT P6SM SCT250=

USA.gov is the U.S. government's official web portal to all federal, state and local government web resources and services.